Time,TemperatureF,DewpointF,PressureIn,WindDirection,WindDirectionDegrees,WindSpeedMPH,WindSpeedGustMPH,Humidity,HourlyPrecipIn,Conditions,Clouds,dailyrainin,SolarRadiationWatts/m^2,SoftwareType,DateUTC
2013-03-02 00:01:00,42.0,29.0,-100.00,NNW,336,3.0,6.0,60,0.00,,,0.00,0.000000,,2013-03-02 06:01:00,
2013-03-02 00:32:00,41.0,30.0,-100.00,NNW,329,5.0,7.0,65,0.00,,,0.00,0.000000,,2013-03-02 06:32:00,
2013-03-02 00:42:00,41.0,30.0,-100.00,NNW,329,5.0,7.0,65,0.00,,,0.00,0.000000,,2013-03-02 06:42:00,
2013-03-02 00:52:00,41.0,30.0,-100.00,NNW,329,5.0,7.0,65,0.00,,,0.00,0.000000,,2013-03-02 06:52:00,
2013-03-02 01:01:00,41.0,30.0,-100.00,NNW,329,5.0,7.0,65,0.00,,,0.00,0.000000,,2013-03-02 07:01:00,
2013-03-02 01:22:00,41.0,30.0,-100.00,NNW,332,6.0,10.0,64,0.00,,,0.00,0.000000,,2013-03-02 07:22:00,
2013-03-02 01:32:00,41.0,30.0,-100.00,NNW,332,6.0,10.0,64,0.00,,,0.00,0.000000,,2013-03-02 07:32:00,
2013-03-02 01:42:00,41.0,30.0,-100.00,NNW,332,6.0,10.0,64,0.00,,,0.00,0.000000,,2013-03-02 07:42:00,
2013-03-02 01:52:00,41.0,30.0,-100.00,NNW,332,6.0,10.0,64,0.00,,,0.00,0.000000,,2013-03-02 07:52:00,
2013-03-02 02:01:00,41.0,30.0,-100.00,NNW,332,6.0,10.0,64,0.00,,,0.00,0.000000,,2013-03-02 08:01:00,
2013-03-02 02:32:00,41.0,29.0,-100.00,NNW,341,7.0,14.0,63,0.00,,,0.00,0.000000,,2013-03-02 08:32:00,
2013-03-02 02:43:00,41.0,29.0,-100.00,NNW,341,7.0,14.0,63,0.00,,,0.00,0.000000,,2013-03-02 08:43:00,
2013-03-02 02:52:00,41.0,29.0,-100.00,NNW,341,7.0,14.0,63,0.00,,,0.00,0.000000,,2013-03-02 08:52:00,
2013-03-02 03:01:00,41.0,29.0,-100.00,NNW,341,7.0,14.0,63,0.00,,,0.00,0.000000,,2013-03-02 09:01:00,
2013-03-02 03:22:00,39.0,28.0,-100.00,NNW,335,6.0,11.0,64,0.00,,,0.00,0.000000,,2013-03-02 09:22:00,
2013-03-02 03:32:00,39.0,28.0,-100.00,NNW,335,6.0,11.0,64,0.00,,,0.00,0.000000,,2013-03-02 09:32:00,
2013-03-02 03:42:00,39.0,28.0,-100.00,NNW,335,6.0,11.0,64,0.00,,,0.00,0.000000,,2013-03-02 09:42:00,
2013-03-02 03:52:00,39.0,28.0,-100.00,NNW,335,6.0,11.0,64,0.00,,,0.00,0.000000,,2013-03-02 09:52:00,
2013-03-02 04:01:00,39.0,28.0,-100.00,NNW,335,6.0,11.0,64,0.00,,,0.00,0.000000,,2013-03-02 10:01:00,
2013-03-02 04:32:00,37.0,28.0,-100.00,NNW,330,4.0,8.0,69,0.00,,,0.00,0.000000,,2013-03-02 10:32:00,
2013-03-02 04:43:00,37.0,28.0,-100.00,NNW,330,4.0,8.0,69,0.00,,,0.00,0.000000,,2013-03-02 10:43:00,
2013-03-02 04:52:00,37.0,28.0,-100.00,NNW,330,4.0,8.0,69,0.00,,,0.00,0.000000,,2013-03-02 10:52:00,
2013-03-02 05:01:00,37.0,28.0,-100.00,NNW,330,4.0,8.0,69,0.00,,,0.00,0.000000,,2013-03-02 11:01:00,
2013-03-02 05:32:00,35.0,27.0,-100.00,NNW,333,4.0,7.0,72,0.00,,,0.00,0.000000,,2013-03-02 11:32:00,
2013-03-02 05:42:00,35.0,27.0,-100.00,NNW,333,4.0,7.0,72,0.00,,,0.00,0.000000,,2013-03-02 11:42:00,
2013-03-02 05:52:00,35.0,27.0,-100.00,NNW,333,4.0,7.0,72,0.00,,,0.00,0.000000,,2013-03-02 11:52:00,
2013-03-02 06:02:00,35.0,27.0,-100.00,NNW,333,4.0,7.0,72,0.00,,,0.00,0.000000,,2013-03-02 12:02:00,
2013-03-02 06:22:00,33.0,27.0,-100.00,NW,325,3.0,7.0,78,0.00,,,0.00,0.000000,,2013-03-02 12:22:00,
2013-03-02 06:33:00,33.0,27.0,-100.00,NW,325,3.0,7.0,78,0.00,,,0.00,0.000000,,2013-03-02 12:33:00,
2013-03-02 06:43:00,33.0,27.0,-100.00,NW,325,3.0,7.0,78,0.00,,,0.00,0.000000,,2013-03-02 12:43:00,
2013-03-02 06:53:00,33.0,27.0,-100.00,NW,325,3.0,7.0,78,0.00,,,0.00,0.000000,,2013-03-02 12:53:00,
2013-03-02 07:01:00,33.0,27.0,-100.00,NW,325,3.0,7.0,78,0.00,,,0.00,0.000000,,2013-03-02 13:01:00,
2013-03-02 07:22:00,33.0,28.0,-100.00,NW,312,4.0,7.0,81,0.00,,,0.00,3.000000,,2013-03-02 13:22:00,
2013-03-02 07:32:00,33.0,28.0,-100.00,NW,312,4.0,7.0,81,0.00,,,0.00,3.000000,,2013-03-02 13:32:00,
2013-03-02 07:42:00,33.0,28.0,-100.00,NW,312,4.0,7.0,81,0.00,,,0.00,3.000000,,2013-03-02 13:42:00,
2013-03-02 07:52:00,33.0,28.0,-100.00,NW,312,4.0,7.0,81,0.00,,,0.00,3.000000,,2013-03-02 13:52:00,
2013-03-02 08:01:00,33.0,28.0,-100.00,NW,312,4.0,7.0,81,0.00,,,0.00,3.000000,,2013-03-02 14:01:00,
2013-03-02 08:22:00,36.0,28.0,-100.00,NW,326,7.0,9.0,72,0.00,,,0.00,104.000000,,2013-03-02 14:22:00,
2013-03-02 08:32:00,36.0,28.0,-100.00,NW,326,7.0,9.0,72,0.00,,,0.00,104.000000,,2013-03-02 14:32:00,
2013-03-02 08:42:00,36.0,28.0,-100.00,NW,326,7.0,9.0,72,0.00,,,0.00,104.000000,,2013-03-02 14:42:00,
2013-03-02 08:52:00,36.0,28.0,-100.00,NW,326,7.0,9.0,72,0.00,,,0.00,104.000000,,2013-03-02 14:52:00,
2013-03-02 09:02:00,36.0,28.0,-100.00,NW,326,7.0,9.0,72,0.00,,,0.00,104.000000,,2013-03-02 15:02:00,
2013-03-02 09:32:00,39.0,25.0,-100.00,NNW,330,12.0,18.0,57,0.00,,,0.00,316.000000,,2013-03-02 15:32:00,
2013-03-02 09:42:00,39.0,25.0,-100.00,NNW,330,12.0,18.0,57,0.00,,,0.00,316.000000,,2013-03-02 15:42:00,
2013-03-02 09:52:00,39.0,25.0,-100.00,NNW,330,12.0,18.0,57,0.00,,,0.00,316.000000,,2013-03-02 15:52:00,
2013-03-02 10:01:00,39.0,25.0,-100.00,NNW,330,12.0,18.0,57,0.00,,,0.00,316.000000,,2013-03-02 16:01:00,
2013-03-02 10:22:00,40.0,23.0,-100.00,NW,324,13.0,21.0,51,0.00,,,0.00,550.000000,,2013-03-02 16:22:00,
2013-03-02 10:32:00,40.0,23.0,-100.00,NW,324,13.0,21.0,51,0.00,,,0.00,550.000000,,2013-03-02 16:32:00,
2013-03-02 10:42:00,40.0,23.0,-100.00,NW,324,13.0,21.0,51,0.00,,,0.00,550.000000,,2013-03-02 16:42:00,
2013-03-02 10:52:00,40.0,23.0,-100.00,NW,324,13.0,21.0,51,0.00,,,0.00,550.000000,,2013-03-02 16:52:00,
2013-03-02 11:01:00,40.0,23.0,-100.00,NW,324,13.0,21.0,51,0.00,,,0.00,550.000000,,2013-03-02 17:01:00,
2013-03-02 11:32:00,42.0,18.0,-100.00,NNW,328,12.0,23.0,38,0.00,,,0.00,785.000000,,2013-03-02 17:32:00,
2013-03-02 11:42:00,42.0,18.0,-100.00,NNW,328,12.0,23.0,38,0.00,,,0.00,785.000000,,2013-03-02 17:42:00,
2013-03-02 11:52:00,42.0,18.0,-100.00,NNW,328,12.0,23.0,38,0.00,,,0.00,785.000000,,2013-03-02 17:52:00,
2013-03-02 12:02:00,42.0,18.0,-100.00,NNW,328,12.0,23.0,38,0.00,,,0.00,785.000000,,2013-03-02 18:02:00,
2013-03-02 12:32:00,45.0,20.0,-100.00,North,349,11.0,21.0,36,0.00,,,0.00,906.000000,,2013-03-02 18:32:00,
2013-03-02 12:42:00,45.0,20.0,-100.00,North,349,11.0,21.0,36,0.00,,,0.00,906.000000,,2013-03-02 18:42:00,
2013-03-02 12:52:00,45.0,20.0,-100.00,North,349,11.0,21.0,36,0.00,,,0.00,906.000000,,2013-03-02 18:52:00,
2013-03-02 13:01:00,45.0,20.0,-100.00,North,349,11.0,21.0,36,0.00,,,0.00,906.000000,,2013-03-02 19:01:00,
2013-03-02 13:32:00,47.0,20.0,-100.00,NNW,341,10.0,24.0,34,0.00,,,0.00,949.000000,,2013-03-02 19:32:00,
2013-03-02 13:42:00,47.0,20.0,-100.00,NNW,341,10.0,24.0,34,0.00,,,0.00,949.000000,,2013-03-02 19:42:00,
2013-03-02 13:52:00,47.0,20.0,-100.00,NNW,341,10.0,24.0,34,0.00,,,0.00,949.000000,,2013-03-02 19:52:00,
2013-03-02 14:01:00,47.0,20.0,-100.00,NNW,341,10.0,24.0,34,0.00,,,0.00,949.000000,,2013-03-02 20:01:00,
2013-03-02 14:22:00,49.0,19.0,-100.00,NNW,343,12.0,22.0,30,0.00,,,0.00,904.000000,,2013-03-02 20:22:00,
2013-03-02 14:32:00,49.0,19.0,-100.00,NNW,343,12.0,22.0,30,0.00,,,0.00,904.000000,,2013-03-02 20:32:00,
2013-03-02 14:42:00,49.0,19.0,-100.00,NNW,343,12.0,22.0,30,0.00,,,0.00,904.000000,,2013-03-02 20:42:00,
2013-03-02 15:02:00,49.0,19.0,-100.00,NNW,343,12.0,22.0,30,0.00,,,0.00,904.000000,,2013-03-02 21:02:00,
2013-03-02 15:32:00,51.0,21.0,-100.00,NNW,332,11.0,21.0,30,0.00,,,0.00,792.000000,,2013-03-02 21:32:00,
2013-03-02 15:42:00,51.0,21.0,-100.00,NNW,332,11.0,21.0,30,0.00,,,0.00,792.000000,,2013-03-02 21:42:00,
2013-03-02 15:52:00,51.0,21.0,-100.00,NNW,332,11.0,21.0,30,0.00,,,0.00,792.000000,,2013-03-02 21:52:00,
2013-03-02 16:02:00,51.0,21.0,-100.00,NNW,332,11.0,21.0,30,0.00,,,0.00,792.000000,,2013-03-02 22:02:00,
2013-03-02 16:32:00,51.0,18.0,-100.00,NW,323,12.0,22.0,27,0.00,,,0.00,621.000000,,2013-03-02 22:32:00,
2013-03-02 16:42:00,51.0,18.0,-100.00,NW,323,12.0,22.0,27,0.00,,,0.00,621.000000,,2013-03-02 22:42:00,
2013-03-02 16:52:00,51.0,18.0,-100.00,NW,323,12.0,22.0,27,0.00,,,0.00,621.000000,,2013-03-02 22:52:00,
2013-03-02 17:01:00,51.0,18.0,-100.00,NW,323,12.0,22.0,27,0.00,,,0.00,621.000000,,2013-03-02 23:01:00,
2013-03-02 17:32:00,51.0,16.0,-100.00,NNW,339,11.0,22.0,25,0.00,,,0.00,400.000000,,2013-03-02 23:32:00,
2013-03-02 17:42:00,51.0,16.0,-100.00,NNW,339,11.0,22.0,25,0.00,,,0.00,400.000000,,2013-03-02 23:42:00,
2013-03-02 17:52:00,51.0,16.0,-100.00,NNW,339,11.0,22.0,25,0.00,,,0.00,400.000000,,2013-03-02 23:52:00,
2013-03-02 18:02:00,51.0,16.0,-100.00,NNW,339,11.0,22.0,25,0.00,,,0.00,400.000000,,2013-03-03 00:02:00,
2013-03-02 18:32:00,49.0,19.0,-100.00,NNW,329,9.0,18.0,30,0.00,,,0.00,118.000000,,2013-03-03 00:32:00,
2013-03-02 18:42:00,49.0,19.0,-100.00,NNW,329,9.0,18.0,30,0.00,,,0.00,118.000000,,2013-03-03 00:42:00,
2013-03-02 18:52:00,49.0,19.0,-100.00,NNW,329,9.0,18.0,30,0.00,,,0.00,118.000000,,2013-03-03 00:52:00,
2013-03-02 19:01:00,49.0,19.0,-100.00,NNW,329,9.0,18.0,30,0.00,,,0.00,118.000000,,2013-03-03 01:01:00,
2013-03-02 19:32:00,44.0,21.0,-100.00,NW,317,3.0,11.0,40,0.00,,,0.00,3.000000,,2013-03-03 01:32:00,
2013-03-02 19:42:00,44.0,21.0,-100.00,NW,317,3.0,11.0,40,0.00,,,0.00,3.000000,,2013-03-03 01:42:00,
2013-03-02 19:52:00,44.0,21.0,-100.00,NW,317,3.0,11.0,40,0.00,,,0.00,3.000000,,2013-03-03 01:52:00,
2013-03-02 20:01:00,44.0,21.0,-100.00,NW,317,3.0,11.0,40,0.00,,,0.00,3.000000,,2013-03-03 02:01:00,
2013-03-02 20:32:00,40.0,27.0,-100.00,SW,234,0.0,4.0,59,0.00,,,0.00,0.000000,,2013-03-03 02:32:00,
2013-03-02 20:42:00,40.0,27.0,-100.00,SW,234,0.0,4.0,59,0.00,,,0.00,0.000000,,2013-03-03 02:42:00,
2013-03-02 20:52:00,40.0,27.0,-100.00,SW,234,0.0,4.0,59,0.00,,,0.00,0.000000,,2013-03-03 02:52:00,
2013-03-02 21:01:00,40.0,27.0,-100.00,SW,234,0.0,4.0,59,0.00,,,0.00,0.000000,,2013-03-03 03:01:00,
2013-03-02 21:32:00,36.0,25.0,-100.00,North,6,0.0,0.0,64,0.00,,,0.00,0.000000,,2013-03-03 03:32:00,
2013-03-02 21:42:00,36.0,25.0,-100.00,North,6,0.0,0.0,64,0.00,,,0.00,0.000000,,2013-03-03 03:42:00,
2013-03-02 21:52:00,36.0,25.0,-100.00,North,6,0.0,0.0,64,0.00,,,0.00,0.000000,,2013-03-03 03:52:00,
2013-03-02 22:01:00,36.0,25.0,-100.00,North,6,0.0,0.0,64,0.00,,,0.00,0.000000,,2013-03-03 04:01:00,
2013-03-02 22:32:00,34.0,28.0,-100.00,West,275,0.0,0.0,79,0.00,,,0.00,0.000000,,2013-03-03 04:32:00,
2013-03-02 22:42:00,34.0,28.0,-100.00,West,275,0.0,0.0,79,0.00,,,0.00,0.000000,,2013-03-03 04:42:00,
2013-03-02 22:52:00,34.0,28.0,-100.00,West,275,0.0,0.0,79,0.00,,,0.00,0.000000,,2013-03-03 04:52:00,
2013-03-02 23:02:00,34.0,28.0,-100.00,West,275,0.0,0.0,79,0.00,,,0.00,0.000000,,2013-03-03 05:02:00,
2013-03-02 23:32:00,32.0,28.0,-100.00,SW,221,0.0,0.0,85,0.00,,,0.00,0.000000,,2013-03-03 05:32:00,
2013-03-02 23:42:00,32.0,28.0,-100.00,SW,221,0.0,0.0,85,0.00,,,0.00,0.000000,,2013-03-03 05:42:00,
2013-03-02 23:52:00,32.0,28.0,-100.00,SW,221,0.0,0.0,85,0.00,,,0.00,0.000000,,2013-03-03 05:52:00,